Coalvale, Kansas
Current Conditions -  °F | °C
As of 3:35 PM on Saturday 25 Oct 2014 (Local Time) from KPTS Reporting Station
Clear Clear  
Wind Chill: 83°   Ceiling: Unl
Heat Index: 85°   Visibility: 10mi
Dew Point: 66°   Wind: 5mph
Humidity: 56%   Direction: 200°SSW
Pressure: 30.02"   Gusts: NA
Location:  37.6277°N, 94.7013°W
Report Text: KPTS 252035Z AUTO 20004KT 10SM CLR 28/19 A3002 RMK AO2 T02830187
Loading
Personal Weather Stations






























Interactive Weather Map
Tropical Storm Tracking
New forecast layout! Learn more

10-Day Weather Forecast

Advertisements
Track Severe Weather on mobile